Wednesday, January 17, 2018, 1:13 PM GMT
Back to Local

CYHU, Saint Hubert Airport

Location: , , Canada Lat: 45.517
Local Time: 1:13 PM GMT (13:13 GMT) Lon: -73.417
Time Zone: GMT Elev: 88 ft

Show me the last for .
Show Decoded

2018-01-17 12:36 METAR CYHU 171236Z AUTO 17003KT 5SM BR OVC004 M11/M12 A3036 RMK SLP286 =
2018-01-17 12:23 METAR CYHU 171223Z AUTO 18002KT 5SM -SN OVC004 M11/M12 A3037 RMK SLP287 =
2018-01-17 12:02 METAR CYHU 171202Z AUTO 09004KT 5SM BR OVC004 M11/M13 A3036 RMK SLP286 =
2018-01-17 12:00 METAR CYHU 171200Z AUTO 10004KT 6SM BR OVC004 M11/M13 A3036 RMK SLP286 =
2018-01-17 11:37 METAR CYHU 171137Z AUTO 13004KT 7SM OVC004 M11/M13 A3037 RMK SLP288 =
2018-01-17 11:00 METAR CYHU 171100Z AUTO 14002KT 7SM OVC006 M12/M13 A3037 RMK SLP289 =
2018-01-17 10:00 METAR CYHU 171000Z AUTO 10005KT 030V100 7SM OVC006 M12/M14 A3037 RMK SLP287 =
2018-01-17 09:50 METAR CYHU 170950Z AUTO 05003KT 7SM -SN OVC006 M12/M13 A3037 RMK SLP289 =
2018-01-17 09:00 METAR CYHU 170900Z AUTO 00000KT 7SM OVC008 M12/M13 A3038 RMK SLP292 =
2018-01-17 08:00 METAR CYHU 170800Z AUTO 00000KT 7SM OVC010 M12/M14 A3039 RMK SLP295 =
2018-01-17 07:00 METAR CYHU 170700Z AUTO 06003KT 7SM OVC012 M12/M14 A3039 RMK SLP294 =
2018-01-17 06:00 METAR CYHU 170600Z AUTO VRB02KT 8SM BKN012 BKN020 M12/M13 A3039 RMK SLP294 =
2018-01-17 05:51 METAR CYHU 170551Z AUTO 30004KT 290V020 8SM SCT012 BKN020 M12/M14 A3039 RMK
                 SLP296 =
2018-01-17 05:00 METAR CYHU 170500Z AUTO 00000KT 6SM -SN OVC022 M12/M14 A3040 RMK SLP298 =
2018-01-17 04:52 METAR CYHU 170452Z AUTO 00000KT 6SM -SN OVC022 M12/M14 A3040 RMK SLP298 =
2018-01-17 04:34 METAR CYHU 170434Z AUTO 33004KT 5SM -SN FEW012 OVC024 M12/M14 A3040 RMK SLP299 =
2018-01-17 04:00 METAR CYHU 170400Z AUTO 36002KT 5SM -SN BKN065 M13/M15 A3041 RMK SLP302 =
2018-01-17 03:48 METAR CYHU 170348Z AUTO 03003KT 5SM -SN BKN065 M12/M14 A3041 RMK SLP300 =
2018-01-17 03:36 METAR CYHU 170336Z AUTO 04003KT 6SM -SN OVC065 M12/M14 A3041 RMK SLP300 =
2018-01-17 03:04 METAR CYHU 170304Z AUTO 01003KT 5SM -SN FEW055 OVC067 M12/M13 A3041 RMK SLP302 =
2018-01-17 03:00 METAR CYHU 170300Z AUTO 01003KT 6SM -SN FEW055 OVC067 M12/M13 A3041 RMK SLP302 =
2018-01-17 02:00 METAR CYHU 170200Z AUTO 03004KT 6SM -SN OVC070 M12/M14 A3042 RMK SLP305 =
2018-01-17 01:37 METAR CYHU 170137Z AUTO 05002KT 6SM -SN OVC070 M12/M13 A3042 RMK SLP307 =
2018-01-17 01:00 METAR CYHU 170100Z AUTO 01003KT 4SM -SN OVC070 M11/M13 A3044 RMK SLP310 =
2018-01-17 00:48 METAR CYHU 170048Z AUTO 02004KT 5SM -SN FEW041 OVC070 M11/M13 A3043 RMK SLP309 =
2018-01-17 00:30 METAR CYHU 170030Z AUTO 01003KT 6SM -SN FEW043 OVC070 M11/M13 A3044 RMK SLP310 =
2018-01-17 00:00 METAR CYHU 170000Z AUTO 05003KT 5SM -SN BKN048 OVC070 M11/M13 A3044 RMK SLP312 =
2018-01-16 23:10 METAR CYHU 162310Z AUTO 02004KT 3SM -SN BKN028 OVC041 M11/M13 A3044 RMK SLP314 =
2018-01-16 23:04 METAR CYHU 162304Z AUTO 02005KT 2SM -SN OVC030 M11/M13 A3044 RMK SLP312 =
2018-01-16 23:00 METAR CYHU 162300Z AUTO 02004KT 1 3/4SM -SN OVC030 M11/M13 A3044 RMK SLP312 =
2018-01-16 22:55 METAR CYHU 162255Z AUTO 04004KT 2 1/2SM -SN BKN030 OVC065 M11/M13 A3044 RMK
                 SLP312 =
2018-01-16 22:51 METAR CYHU 162251Z AUTO 03003KT 4SM -SN BKN034 OVC065 M11/M13 A3044 RMK SLP312 =
2018-01-16 22:24 METAR CYHU 162224Z AUTO 02004KT 6SM -SN FEW038 OVC070 M11/M14 A3043 RMK SLP309 =
2018-01-16 22:00 METAR CYHU 162200Z AUTO 01002KT 4SM -SN OVC038 M11/M13 A3043 RMK SLP309 =
2018-01-16 21:58 METAR CYHU 162158Z AUTO 01002KT 5SM -SN BKN038 OVC065 M11/M13 A3043 RMK SLP310 =
2018-01-16 21:56 METAR CYHU 162156Z AUTO 36002KT 6SM -SN BKN038 OVC065 M11/M13 A3043 RMK SLP310 =
2018-01-16 21:40 METAR CYHU 162140Z AUTO 35002KT 5SM -SN FEW028 SCT040 BKN050 OVC065 M11/M13
                 A3043 RMK SLP310 =
2018-01-16 21:19 METAR CYHU 162119Z AUTO VRB02KT 6SM -SN BKN027 BKN055 OVC065 M11/M14 A3044 RMK
                 SLP310 =
2018-01-16 21:00 METAR CYHU 162100Z AUTO 00000KT 3SM -SN BKN025 OVC065 M11/M14 A3044 RMK SLP310 =
2018-01-16 20:51 METAR CYHU 162051Z AUTO 00000KT 3SM -SN SCT027 OVC065 M11/M14 A3043 RMK SLP310 =
2018-01-16 20:23 METAR CYHU 162023Z AUTO 06003KT 2 1/2SM -SN BKN034 OVC044 M11/M14 A3043 RMK VIS
                 VRB 1 1/2-3 SLP307 =
2018-01-16 20:00 METAR CYHU 162000Z AUTO 03003KT 4SM -SN BKN030 OVC040 M11/M14 A3043 RMK SLP309 =
2018-01-16 19:34 METAR CYHU 161934Z AUTO VRB02KT 5SM -SN SCT030 BKN036 M13/M16 A3043 RMK SLP308 =
2018-01-16 19:29 METAR CYHU 161929Z AUTO 04002KT 6SM -SN FEW030 BKN036 M12/M15 A3042 RMK SLP306 =
2018-01-16 19:01 METAR CYHU 161901Z AUTO 02005KT 5SM -SN BKN033 OVC049 M12/M14 A3042 RMK SLP305 =
2018-01-16 19:00 METAR CYHU 161900Z AUTO 02005KT 6SM -SN BKN033 OVC049 M12/M15 A3042 RMK SLP306 =
2018-01-16 18:44 METAR CYHU 161844Z AUTO 05005KT 6SM -SN FEW024 SCT035 BKN049 M11/M15 A3043 RMK
                 SLP308 =
2018-01-16 18:04 METAR CYHU 161804Z AUTO 05004KT 5SM -SN OVC047 M12/M14 A3043 RMK SLP308 =
2018-01-16 18:00 METAR CYHU 161800Z AUTO 04003KT 8SM -SN OVC047 M12/M15 A3043 RMK SLP308 =
2018-01-16 17:53 METAR CYHU 161753Z AUTO 06005KT 6SM -SN OVC047 M12/M15 A3042 RMK SLP307 =
2018-01-16 17:39 METAR CYHU 161739Z AUTO 06005KT 5SM -SN OVC045 M11/M14 A3042 RMK SLP307 =
2018-01-16 17:25 METAR CYHU 161725Z AUTO 06004KT 6SM -SN FEW027 SCT032 OVC045 M12/M15 A3043 RMK
                 SLP309 =
2018-01-16 17:00 METAR CYHU 161700Z AUTO 00000KT 3SM -SN OVC029 M12/M15 A3044 RMK SLP314 =
2018-01-16 16:46 METAR CYHU 161646Z AUTO 00000KT 5SM -SN OVC027 M13/M15 A3045 RMK SLP317 =
2018-01-16 16:36 METAR CYHU 161636Z AUTO 33003KT 6SM -SN OVC025 M13/M15 A3045 RMK SLP317 =
2018-01-16 16:28 METAR CYHU 161628Z AUTO 34003KT 320V040 3SM -SN OVC025 M13/M16 A3046 RMK SLP318
                 =
2018-01-16 16:11 METAR CYHU 161611Z AUTO 01003KT 360V060 2 1/4SM -SN OVC025 M13/M15 A3046 RMK VIS
                 VRB 1 1/4-3 SLP319 =
2018-01-16 16:00 METAR CYHU 161600Z AUTO 03003KT 3SM -SN OVC025 M13/M16 A3047 RMK SLP321 =
2018-01-16 15:12 METAR CYHU 161512Z AUTO 01007KT 5SM -SN OVC025 M14/M16 A3047 RMK SLP322 =
2018-01-16 15:00 METAR CYHU 161500Z AUTO 01007KT 6SM -SN OVC025 M14/M16 A3047 RMK SLP322 =
2018-01-16 14:31 METAR CYHU 161431Z AUTO 01005KT 3SM -SN OVC030 M14/M17 A3047 RMK SLP324 =
2018-01-16 14:00 METAR CYHU 161400Z AUTO 02005KT 2 1/2SM -SN OVC028 M15/M17 A3047 RMK SLP321 =
2018-01-16 13:37 METAR CYHU 161337Z AUTO 04004KT 2 1/4SM -SN OVC034 M15/M17 A3047 RMK SLP322 =

Support USWX by starting your Amazon purchase here.